sensor_id;sensor_type;location;lat;lon;timestamp;pressure;altitude;pressure_sealevel;temperature;humidity
12594;BME280;6362;50.208;9.182;2024-01-11T00:02:16;101142.00;;;-5.16;100.00
12594;BME280;6362;50.208;9.182;2024-01-11T00:04:43;101147.97;;;-5.16;100.00
12594;BME280;6362;50.208;9.182;2024-01-11T00:07:09;101158.75;;;-5.18;100.00
12594;BME280;6362;50.208;9.182;2024-01-11T00:09:39;101155.22;;;-5.20;100.00
12594;BME280;6362;50.208;9.182;2024-01-11T00:12:05;101159.59;;;-5.29;100.00
12594;BME280;6362;50.208;9.182;2024-01-11T00:14:31;101161.72;;;-5.24;100.00
12594;BME280;6362;50.208;9.182;2024-01-11T00:16:56;101161.72;;;-5.24;100.00
12594;BME280;6362;50.208;9.182;2024-01-11T00:19:22;101159.06;;;-5.25;100.00
12594;BME280;6362;50.208;9.182;2024-01-11T00:21:47;101157.31;;;-5.26;100.00
12594;BME280;6362;50.208;9.182;2024-01-11T00:24:13;101166.47;;;-5.17;100.00
12594;BME280;6362;50.208;9.182;2024-01-11T00:26:38;101161.72;;;-5.24;100.00
12594;BME280;6362;50.208;9.182;2024-01-11T00:29:04;101159.69;;;-5.28;100.00
12594;BME280;6362;50.208;9.182;2024-01-11T00:31:29;101162.03;;;-5.31;100.00
12594;BME280;6362;50.208;9.182;2024-01-11T00:33:55;101154.72;;;-5.38;100.00
12594;BME280;6362;50.208;9.182;2024-01-11T00:36:20;101157.56;;;-5.45;100.00
12594;BME280;6362;50.208;9.182;2024-01-11T00:38:46;101161.75;;;-5.46;100.00
12594;BME280;6362;50.208;9.182;2024-01-11T00:41:11;101164.75;;;-5.40;100.00
12594;BME280;6362;50.208;9.182;2024-01-11T00:43:37;101165.63;;;-5.39;100.00
12594;BME280;6362;50.208;9.182;2024-01-11T00:46:02;101170.00;;;-5.48;100.00
12594;BME280;6362;50.208;9.182;2024-01-11T00:48:28;101170.78;;;-5.49;100.00
12594;BME280;6362;50.208;9.182;2024-01-11T00:50:53;101169.19;;;-5.59;100.00
12594;BME280;6362;50.208;9.182;2024-01-11T00:53:19;101168.41;;;-5.58;100.00
12594;BME280;6362;50.208;9.182;2024-01-11T00:55:45;101178.13;;;-5.52;100.00
12594;BME280;6362;50.208;9.182;2024-01-11T00:58:10;101172.34;;;-5.62;100.00
12594;BME280;6362;50.208;9.182;2024-01-11T01:00:36;101176.06;;;-5.68;100.00
12594;BME280;6362;50.208;9.182;2024-01-11T01:03:01;101172.03;;;-5.66;100.00
12594;BME280;6362;50.208;9.182;2024-01-11T01:05:27;101164.06;;;-5.71;100.00
12594;BME280;6362;50.208;9.182;2024-01-11T01:07:52;101170.28;;;-5.77;100.00
12594;BME280;6362;50.208;9.182;2024-01-11T01:10:18;101162.38;;;-5.82;100.00
12594;BME280;6362;50.208;9.182;2024-01-11T01:12:43;101157.94;;;-5.85;100.00
12594;BME280;6362;50.208;9.182;2024-01-11T01:15:09;101160.47;;;-5.85;100.00
12594;BME280;6362;50.208;9.182;2024-01-11T01:17:34;101152.69;;;-5.76;100.00
12594;BME280;6362;50.208;9.182;2024-01-11T01:20:00;101155.75;;;-5.80;100.00
12594;BME280;6362;50.208;9.182;2024-01-11T01:22:25;101143.09;;;-5.80;100.00
12594;BME280;6362;50.208;9.182;2024-01-11T01:24:51;101150.09;;;-5.88;100.00
12594;BME280;6362;50.208;9.182;2024-01-11T01:27:16;101152.38;;;-5.91;100.00
12594;BME280;6362;50.208;9.182;2024-01-11T01:29:42;101151.53;;;-5.91;100.00
12594;BME280;6362;50.208;9.182;2024-01-11T01:32:08;101164.97;;;-5.92;100.00
12594;BME280;6362;50.208;9.182;2024-01-11T01:34:33;101162.63;;;-5.89;100.00
12594;BME280;6362;50.208;9.182;2024-01-11T01:36:58;101167.41;;;-5.94;100.00
12594;BME280;6362;50.208;9.182;2024-01-11T01:39:24;101167.94;;;-5.86;100.00
12594;BME280;6362;50.208;9.182;2024-01-11T01:41:49;101162.88;;;-5.86;100.00
12594;BME280;6362;50.208;9.182;2024-01-11T01:44:15;101175.25;;;-5.79;100.00
12594;BME280;6362;50.208;9.182;2024-01-11T01:46:40;101173.47;;;-5.92;100.00
12594;BME280;6362;50.208;9.182;2024-01-11T01:49:06;101166.00;;;-6.00;100.00
12594;BME280;6362;50.208;9.182;2024-01-11T01:51:32;101160.69;;;-5.93;100.00
12594;BME280;6362;50.208;9.182;2024-01-11T01:53:59;101160.88;;;-5.90;100.00
12594;BME280;6362;50.208;9.182;2024-01-11T01:56:25;101161.56;;;-5.93;100.00
12594;BME280;6362;50.208;9.182;2024-01-11T01:58:53;101166.03;;;-5.89;100.00
12594;BME280;6362;50.208;9.182;2024-01-11T02:01:20;101166.50;;;-5.94;100.00
12594;BME280;6362;50.208;9.182;2024-01-11T02:03:49;101163.31;;;-5.92;100.00
12594;BME280;6362;50.208;9.182;2024-01-11T02:06:16;101160.88;;;-5.90;100.00
12594;BME280;6362;50.208;9.182;2024-01-11T02:08:43;101161.88;;;-5.88;100.00
12594;BME280;6362;50.208;9.182;2024-01-11T02:11:10;101163.94;;;-5.94;100.00
12594;BME280;6362;50.208;9.182;2024-01-11T02:13:36;101170.19;;;-6.01;100.00
12594;BME280;6362;50.208;9.182;2024-01-11T02:16:02;101168.47;;;-5.90;100.00
12594;BME280;6362;50.208;9.182;2024-01-11T02:18:27;101165.28;;;-5.99;100.00
12594;BME280;6362;50.208;9.182;2024-01-11T02:20:53;101167.56;;;-6.02;100.00
12594;BME280;6362;50.208;9.182;2024-01-11T02:23:21;101160.25;;;-6.09;100.00
12594;BME280;6362;50.208;9.182;2024-01-11T02:25:49;101173.19;;;-5.95;100.00
12594;BME280;6362;50.208;9.182;2024-01-11T02:28:15;101176.50;;;-5.96;100.00
12594;BME280;6362;50.208;9.182;2024-01-11T02:30:40;101168.53;;;-6.00;100.00
12594;BME280;6362;50.208;9.182;2024-01-11T02:33:06;101160.09;;;-6.11;100.00
12594;BME280;6362;50.208;9.182;2024-01-11T02:35:32;101164.94;;;-6.14;100.00
12594;BME280;6362;50.208;9.182;2024-01-11T02:37:59;101167.47;;;-6.14;100.00
12594;BME280;6362;50.208;9.182;2024-01-11T02:40:25;101176.00;;;-6.24;100.00
12594;BME280;6362;50.208;9.182;2024-01-11T02:42:51;101169.94;;;-6.26;100.00
12594;BME280;6362;50.208;9.182;2024-01-11T02:45:17;101177.03;;;-6.22;100.00
12594;BME280;6362;50.208;9.182;2024-01-11T02:47:44;101174.84;;;-6.27;100.00
12594;BME280;6362;50.208;9.182;2024-01-11T02:50:09;101184.63;;;-6.32;100.00
12594;BME280;6362;50.208;9.182;2024-01-11T02:52:37;101186.03;;;-6.35;100.00
12594;BME280;6362;50.208;9.182;2024-01-11T02:55:02;101168.59;;;-6.43;100.00
12594;BME280;6362;50.208;9.182;2024-01-11T02:57:28;101161.47;;;-6.26;100.00
12594;BME280;6362;50.208;9.182;2024-01-11T02:59:54;101162.84;;;-6.30;100.00
12594;BME280;6362;50.208;9.182;2024-01-11T03:02:19;101162.25;;;-6.38;100.00
12594;BME280;6362;50.208;9.182;2024-01-11T03:04:45;101157.06;;;-6.39;100.00
12594;BME280;6362;50.208;9.182;2024-01-11T03:07:10;101145.94;;;-6.41;100.00
12594;BME280;6362;50.208;9.182;2024-01-11T03:09:36;101143.81;;;-6.47;100.00
12594;BME280;6362;50.208;9.182;2024-01-11T03:12:01;101144.47;;;-6.49;100.00
12594;BME280;6362;50.208;9.182;2024-01-11T03:14:27;101148.78;;;-6.58;100.00
12594;BME280;6362;50.208;9.182;2024-01-11T03:16:52;101154.13;;;-6.66;100.00
12594;BME280;6362;50.208;9.182;2024-01-11T03:19:18;101147.25;;;-6.67;100.00
12594;BME280;6362;50.208;9.182;2024-01-11T03:21:45;101148.19;;;-6.66;100.00
12594;BME280;6362;50.208;9.182;2024-01-11T03:24:12;101146.16;;;-6.70;100.00
12594;BME280;6362;50.208;9.182;2024-01-11T03:26:37;101144.91;;;-6.75;100.00
12594;BME280;6362;50.208;9.182;2024-01-11T03:29:03;101138.69;;;-6.79;100.00
12594;BME280;6362;50.208;9.182;2024-01-11T03:31:28;101148.31;;;-6.75;100.00
12594;BME280;6362;50.208;9.182;2024-01-11T03:33:54;101150.06;;;-6.74;100.00
12594;BME280;6362;50.208;9.182;2024-01-11T03:36:23;101143.53;;;-6.82;100.00
12594;BME280;6362;50.208;9.182;2024-01-11T03:38:49;101148.31;;;-6.85;100.00
12594;BME280;6362;50.208;9.182;2024-01-11T03:41:14;101152.38;;;-6.87;100.00
12594;BME280;6362;50.208;9.182;2024-01-11T03:43:39;101144.66;;;-6.88;100.00
12594;BME280;6362;50.208;9.182;2024-01-11T03:46:05;101152.88;;;-6.91;100.00
12594;BME280;6362;50.208;9.182;2024-01-11T03:48:31;101149.22;;;-6.95;100.00
12594;BME280;6362;50.208;9.182;2024-01-11T03:50:56;101148.47;;;-6.94;100.00
12594;BME280;6362;50.208;9.182;2024-01-11T03:53:22;101137.97;;;-6.98;100.00
12594;BME280;6362;50.208;9.182;2024-01-11T03:55:47;101151.50;;;-6.98;100.00
12594;BME280;6362;50.208;9.182;2024-01-11T03:58:13;101150.47;;;-7.00;100.00
12594;BME280;6362;50.208;9.182;2024-01-11T04:00:39;101149.25;;;-7.05;100.00
12594;BME280;6362;50.208;9.182;2024-01-11T04:03:06;101159.22;;;-6.96;100.00
12594;BME280;6362;50.208;9.182;2024-01-11T04:05:32;101161.50;;;-6.99;100.00
12594;BME280;6362;50.208;9.182;2024-01-11T04:07:57;101160.25;;;-7.04;100.00
12594;BME280;6362;50.208;9.182;2024-01-11T04:10:23;101156.44;;;-7.09;100.00
12594;BME280;6362;50.208;9.182;2024-01-11T04:12:48;101162.75;;;-7.14;100.00
12594;BME280;6362;50.208;9.182;2024-01-11T04:15:14;101158.84;;;-7.21;100.00
12594;BME280;6362;50.208;9.182;2024-01-11T04:17:39;101156.69;;;-7.17;100.00
12594;BME280;6362;50.208;9.182;2024-01-11T04:20:06;101159.59;;;-7.22;100.00
12594;BME280;6362;50.208;9.182;2024-01-11T04:22:33;101163.16;;;-7.20;100.00
12594;BME280;6362;50.208;9.182;2024-01-11T04:24:58;101170.84;;;-7.29;100.00
12594;BME280;6362;50.208;9.182;2024-01-11T04:27:24;101166.28;;;-7.33;100.00
12594;BME280;6362;50.208;9.182;2024-01-11T04:29:49;101174.13;;;-7.30;100.00
12594;BME280;6362;50.208;9.182;2024-01-11T04:32:15;101171.97;;;-7.35;100.00
12594;BME280;6362;50.208;9.182;2024-01-11T04:34:40;101178.56;;;-7.37;100.00
12594;BME280;6362;50.208;9.182;2024-01-11T04:37:06;101183.34;;;-7.40;100.00
12594;BME280;6362;50.208;9.182;2024-01-11T04:39:32;101178.16;;;-7.42;100.00
12594;BME280;6362;50.208;9.182;2024-01-11T04:41:59;101192.69;;;-7.39;100.00
12594;BME280;6362;50.208;9.182;2024-01-11T04:44:25;101194.09;;;-7.43;100.00
12594;BME280;6362;50.208;9.182;2024-01-11T04:46:51;101186.13;;;-7.48;100.00
12594;BME280;6362;50.208;9.182;2024-01-11T04:49:16;101187.13;;;-7.46;100.00
12594;BME280;6362;50.208;9.182;2024-01-11T04:51:42;101190.41;;;-7.47;100.00
12594;BME280;6362;50.208;9.182;2024-01-11T04:54:07;101189.41;;;-7.49;100.00
12594;BME280;6362;50.208;9.182;2024-01-11T04:56:33;101187.00;;;-7.47;100.00
12594;BME280;6362;50.208;9.182;2024-01-11T04:58:59;101180.69;;;-7.52;100.00
12594;BME280;6362;50.208;9.182;2024-01-11T05:01:24;101180.69;;;-7.52;100.00
12594;BME280;6362;50.208;9.182;2024-01-11T05:03:50;101187.34;;;-7.63;100.00
12594;BME280;6362;50.208;9.182;2024-01-11T05:06:20;101182.41;;;-7.61;100.00
12594;BME280;6362;50.208;9.182;2024-01-11T05:08:46;101181.53;;;-7.62;100.00
12594;BME280;6362;50.208;9.182;2024-01-11T05:11:18;101183.69;;;-7.56;100.00
12594;BME280;6362;50.208;9.182;2024-01-11T05:13:44;101182.41;;;-7.61;100.00
12594;BME280;6362;50.208;9.182;2024-01-11T05:16:20;101174.84;;;-7.61;100.00
12594;BME280;6362;50.208;9.182;2024-01-11T05:18:46;101179.16;;;-7.60;100.00
12594;BME280;6362;50.208;9.182;2024-01-11T05:21:11;101171.31;;;-7.63;100.00
12594;BME280;6362;50.208;9.182;2024-01-11T05:23:37;101180.78;;;-7.71;100.00
12594;BME280;6362;50.208;9.182;2024-01-11T05:26:03;101183.78;;;-7.75;100.00
12594;BME280;6362;50.208;9.182;2024-01-11T05:28:28;101190.13;;;-7.70;100.00
12594;BME280;6362;50.208;9.182;2024-01-11T05:30:54;101193.88;;;-7.75;100.00
12594;BME280;6362;50.208;9.182;2024-01-11T05:33:20;101190.00;;;-7.72;100.00
12594;BME280;6362;50.208;9.182;2024-01-11T05:35:45;101207.16;;;-7.67;100.00
12594;BME280;6362;50.208;9.182;2024-01-11T05:38:11;101199.09;;;-7.63;100.00
12594;BME280;6362;50.208;9.182;2024-01-11T05:40:36;101198.22;;;-7.64;100.00
12594;BME280;6362;50.208;9.182;2024-01-11T05:43:02;101209.09;;;-7.55;100.00
12594;BME280;6362;50.208;9.182;2024-01-11T05:45:28;101205.91;;;-7.62;100.00
12594;BME280;6362;50.208;9.182;2024-01-11T05:47:53;101210.72;;;-7.55;100.00
12594;BME280;6362;50.208;9.182;2024-01-11T05:50:19;101220.81;;;-7.65;100.00
12594;BME280;6362;50.208;9.182;2024-01-11T05:52:44;101220.81;;;-7.65;100.00
12594;BME280;6362;50.208;9.182;2024-01-11T05:55:09;101222.31;;;-7.67;100.00
12594;BME280;6362;50.208;9.182;2024-01-11T05:57:35;101233.16;;;-7.68;100.00
12594;BME280;6362;50.208;9.182;2024-01-11T06:00:00;101232.56;;;-7.66;100.00
12594;BME280;6362;50.208;9.182;2024-01-11T06:02:26;101226.59;;;-7.66;100.00
12594;BME280;6362;50.208;9.182;2024-01-11T06:04:52;101229.75;;;-7.69;100.00
12594;BME280;6362;50.208;9.182;2024-01-11T06:07:17;101231.84;;;-7.55;100.00
12594;BME280;6362;50.208;9.182;2024-01-11T06:09:43;101222.50;;;-7.35;100.00
12594;BME280;6362;50.208;9.182;2024-01-11T06:12:08;101223.63;;;-7.42;100.00
12594;BME280;6362;50.208;9.182;2024-01-11T06:14:34;101245.22;;;-7.46;100.00
12594;BME280;6362;50.208;9.182;2024-01-11T06:16:59;101242.53;;;-7.57;100.00
12594;BME280;6362;50.208;9.182;2024-01-11T06:19:25;101246.31;;;-7.62;100.00
12594;BME280;6362;50.208;9.182;2024-01-11T06:21:50;101248.13;;;-7.51;100.00
12594;BME280;6362;50.208;9.182;2024-01-11T06:24:16;101257.09;;;-7.45;100.00
12594;BME280;6362;50.208;9.182;2024-01-11T06:26:41;101260.50;;;-7.54;100.00
12594;BME280;6362;50.208;9.182;2024-01-11T06:29:07;101253.88;;;-7.62;100.00
12594;BME280;6362;50.208;9.182;2024-01-11T06:31:32;101250.97;;;-7.67;100.00
12594;BME280;6362;50.208;9.182;2024-01-11T06:33:58;101260.06;;;-7.69;100.00
12594;BME280;6362;50.208;9.182;2024-01-11T06:36:23;101263.34;;;-7.70;100.00
12594;BME280;6362;50.208;9.182;2024-01-11T06:38:49;101270.94;;;-7.70;100.00
12594;BME280;6362;50.208;9.182;2024-01-11T06:41:14;101260.06;;;-7.69;100.00
12594;BME280;6362;50.208;9.182;2024-01-11T06:43:39;101261.22;;;-7.65;100.00
12594;BME280;6362;50.208;9.182;2024-01-11T06:46:05;101260.50;;;-7.54;100.00
12594;BME280;6362;50.208;9.182;2024-01-11T06:48:32;101264.66;;;-7.55;100.00
12594;BME280;6362;50.208;9.182;2024-01-11T06:50:57;101253.72;;;-7.35;100.00
12594;BME280;6362;50.208;9.182;2024-01-11T06:53:23;101264.81;;;-7.43;100.00
12594;BME280;6362;50.208;9.182;2024-01-11T06:55:48;101264.91;;;-7.52;100.00
12594;BME280;6362;50.208;9.182;2024-01-11T06:58:16;101260.34;;;-7.56;100.00
12594;BME280;6362;50.208;9.182;2024-01-11T07:00:41;101275.25;;;-7.59;100.00
12594;BME280;6362;50.208;9.182;2024-01-11T07:03:11;101286.78;;;-6.52;100.00
12594;BME280;6362;50.208;9.182;2024-01-11T07:05:36;101285.50;;;-5.62;100.00
12594;BME280;6362;50.208;9.182;2024-01-11T07:08:04;101295.22;;;-5.24;100.00
12594;BME280;6362;50.208;9.182;2024-01-11T07:10:29;101291.66;;;-4.83;100.00
12594;BME280;6362;50.208;9.182;2024-01-11T07:12:55;101296.97;;;-4.68;100.00
12594;BME280;6362;50.208;9.182;2024-01-11T07:15:20;101302.97;;;-4.56;100.00
12594;BME280;6362;50.208;9.182;2024-01-11T07:17:46;101291.34;;;-4.75;100.00
12594;BME280;6362;50.208;9.182;2024-01-11T07:20:11;101301.66;;;-4.39;100.00
12594;BME280;6362;50.208;9.182;2024-01-11T07:22:38;101302.38;;;-4.75;100.00
12594;BME280;6362;50.208;9.182;2024-01-11T07:25:04;101296.28;;;-5.11;100.00
12594;BME280;6362;50.208;9.182;2024-01-11T07:27:29;101289.50;;;-5.44;100.00
12594;BME280;6362;50.208;9.182;2024-01-11T07:29:55;101290.84;;;-5.69;100.00
12594;BME280;6362;50.208;9.182;2024-01-11T07:32:20;101277.69;;;-5.97;100.00
12594;BME280;6362;50.208;9.182;2024-01-11T07:34:46;101270.41;;;-6.15;100.00
12594;BME280;6362;50.208;9.182;2024-01-11T07:37:11;101274.88;;;-6.43;100.00
12594;BME280;6362;50.208;9.182;2024-01-11T07:39:37;101268.44;;;-6.59;100.00
12594;BME280;6362;50.208;9.182;2024-01-11T07:42:02;101271.47;;;-6.74;100.00
12594;BME280;6362;50.208;9.182;2024-01-11T07:44:28;101266.28;;;-6.85;100.00
12594;BME280;6362;50.208;9.182;2024-01-11T07:46:53;101258.47;;;-6.99;100.00
12594;BME280;6362;50.208;9.182;2024-01-11T07:49:19;101255.03;;;-7.09;100.00
12594;BME280;6362;50.208;9.182;2024-01-11T07:51:45;101253.00;;;-7.13;100.00
12594;BME280;6362;50.208;9.182;2024-01-11T07:54:11;101263.88;;;-7.14;100.00
12594;BME280;6362;50.208;9.182;2024-01-11T07:56:37;101271.06;;;-7.19;100.00
12594;BME280;6362;50.208;9.182;2024-01-11T07:59:02;101264.25;;;-7.20;100.00
12594;BME280;6362;50.208;9.182;2024-01-11T08:01:28;101265.00;;;-7.11;100.00
12594;BME280;6362;50.208;9.182;2024-01-11T08:03:53;101265.53;;;-6.74;100.00
12594;BME280;6362;50.208;9.182;2024-01-11T08:06:19;101271.56;;;-6.31;100.00
12594;BME280;6362;50.208;9.182;2024-01-11T08:08:44;101275.94;;;-5.98;100.00
12594;BME280;6362;50.208;9.182;2024-01-11T08:11:16;101282.53;;;-5.78;100.00
12594;BME280;6362;50.208;9.182;2024-01-11T08:13:42;101277.59;;;-5.77;100.00
12594;BME280;6362;50.208;9.182;2024-01-11T08:16:07;101284.81;;;-5.27;100.00
12594;BME280;6362;50.208;9.182;2024-01-11T08:18:35;101278.53;;;-5.11;100.00
12594;BME280;6362;50.208;9.182;2024-01-11T08:21:00;101271.69;;;-4.78;100.00
12594;BME280;6362;50.208;9.182;2024-01-11T08:23:26;101270.00;;;-4.78;100.00
12594;BME280;6362;50.208;9.182;2024-01-11T08:25:52;101274.91;;;-4.69;100.00
12594;BME280;6362;50.208;9.182;2024-01-11T08:28:18;101281.53;;;-4.71;100.00
12594;BME280;6362;50.208;9.182;2024-01-11T08:30:44;101277.69;;;-4.99;100.00
12594;BME280;6362;50.208;9.182;2024-01-11T08:33:09;101299.91;;;-5.29;100.00
12594;BME280;6362;50.208;9.182;2024-01-11T08:35:35;101293.72;;;-5.54;100.00
12594;BME280;6362;50.208;9.182;2024-01-11T08:38:00;101300.03;;;-5.81;100.00
12594;BME280;6362;50.208;9.182;2024-01-11T08:40:26;101322.41;;;-5.98;100.00
12594;BME280;6362;50.208;9.182;2024-01-11T08:42:53;101333.19;;;-6.10;100.00
12594;BME280;6362;50.208;9.182;2024-01-11T08:45:18;101328.91;;;-6.22;100.00
12594;BME280;6362;50.208;9.182;2024-01-11T08:47:45;101317.47;;;-6.17;100.00
12594;BME280;6362;50.208;9.182;2024-01-11T08:50:15;101322.03;;;-6.23;100.00
12594;BME280;6362;50.208;9.182;2024-01-11T08:52:41;101325.72;;;-6.29;100.00
12594;BME280;6362;50.208;9.182;2024-01-11T08:55:07;101327.47;;;-6.18;100.00
12594;BME280;6362;50.208;9.182;2024-01-11T08:57:33;101320.78;;;-6.18;100.00
12594;BME280;6362;50.208;9.182;2024-01-11T09:00:02;101322.44;;;-6.28;100.00
12594;BME280;6362;50.208;9.182;2024-01-11T09:02:27;101317.13;;;-6.21;100.00
12594;BME280;6362;50.208;9.182;2024-01-11T09:04:52;101307.22;;;-6.18;100.00
12594;BME280;6362;50.208;9.182;2024-01-11T09:07:18;101302.53;;;-6.14;100.00
12594;BME280;6362;50.208;9.182;2024-01-11T09:09:43;101298.00;;;-6.18;100.00
12594;BME280;6362;50.208;9.182;2024-01-11T09:12:09;101285.31;;;-6.07;100.00
12594;BME280;6362;50.208;9.182;2024-01-11T09:14:35;101288.81;;;-5.95;100.00
12594;BME280;6362;50.208;9.182;2024-01-11T09:17:00;101299.53;;;-5.88;100.00
12594;BME280;6362;50.208;9.182;2024-01-11T09:19:26;101304.56;;;-5.77;100.00
12594;BME280;6362;50.208;9.182;2024-01-11T09:21:51;101305.81;;;-5.72;100.00
12594;BME280;6362;50.208;9.182;2024-01-11T09:24:17;101291.72;;;-5.59;100.00
12594;BME280;6362;50.208;9.182;2024-01-11T09:26:42;101293.91;;;-5.41;100.00
12594;BME280;6362;50.208;9.182;2024-01-11T09:29:08;101299.34;;;-5.37;100.00
12594;BME280;6362;50.208;9.182;2024-01-11T09:31:34;101297.84;;;-5.45;100.00
12594;BME280;6362;50.208;9.182;2024-01-11T09:33:59;101300.56;;;-5.32;100.00
12594;BME280;6362;50.208;9.182;2024-01-11T09:36:25;101307.56;;;-5.39;100.00
12594;BME280;6362;50.208;9.182;2024-01-11T09:38:50;101304.16;;;-5.40;100.00
12594;BME280;6362;50.208;9.182;2024-01-11T09:41:16;101310.84;;;-5.30;100.00
12594;BME280;6362;50.208;9.182;2024-01-11T09:43:42;101321.44;;;-5.24;100.00
12594;BME280;6362;50.208;9.182;2024-01-11T09:46:09;101321.56;;;-5.22;100.00
12594;BME280;6362;50.208;9.182;2024-01-11T09:48:38;101323.34;;;-4.99;100.00
12594;BME280;6362;50.208;9.182;2024-01-11T09:51:08;101312.16;;;-4.80;100.00
12594;BME280;6362;50.208;9.182;2024-01-11T09:53:35;101308.78;;;-4.68;100.00
12594;BME280;6362;50.208;9.182;2024-01-11T09:56:06;101306.38;;;-4.10;100.00
12594;BME280;6362;50.208;9.182;2024-01-11T09:58:34;101308.19;;;-2.88;100.00
12594;BME280;6362;50.208;9.182;2024-01-11T10:01:02;101294.44;;;-1.61;100.00
12594;BME280;6362;50.208;9.182;2024-01-11T10:03:28;101287.34;;;-0.25;100.00
12594;BME280;6362;50.208;9.182;2024-01-11T10:05:57;101284.19;;;0.87;100.00
12594;BME280;6362;50.208;9.182;2024-01-11T10:08:23;101279.47;;;2.14;93.53
12594;BME280;6362;50.208;9.182;2024-01-11T10:10:49;101277.09;;;2.91;80.69
12594;BME280;6362;50.208;9.182;2024-01-11T10:13:18;101276.72;;;3.41;69.87
12594;BME280;6362;50.208;9.182;2024-01-11T10:15:44;101261.72;;;3.92;63.89
12594;BME280;6362;50.208;9.182;2024-01-11T10:18:09;101267.75;;;4.36;58.44
12594;BME280;6362;50.208;9.182;2024-01-11T10:20:35;101263.75;;;4.89;55.06
12594;BME280;6362;50.208;9.182;2024-01-11T10:23:02;101265.16;;;5.53;53.11
12594;BME280;6362;50.208;9.182;2024-01-11T10:25:28;101265.13;;;6.02;51.42
12594;BME280;6362;50.208;9.182;2024-01-11T10:27:54;101268.53;;;6.28;50.23
12594;BME280;6362;50.208;9.182;2024-01-11T10:30:20;101270.94;;;6.51;47.62
12594;BME280;6362;50.208;9.182;2024-01-11T10:32:48;101267.88;;;6.64;46.91
12594;BME280;6362;50.208;9.182;2024-01-11T10:35:14;101264.47;;;6.65;45.46
12594;BME280;6362;50.208;9.182;2024-01-11T10:37:40;101258.78;;;6.77;44.99
12594;BME280;6362;50.208;9.182;2024-01-11T10:40:08;101260.03;;;6.90;44.30
12594;BME280;6362;50.208;9.182;2024-01-11T10:42:45;101250.91;;;7.34;42.94
12594;BME280;6362;50.208;9.182;2024-01-11T10:45:18;101253.06;;;7.50;42.31
12594;BME280;6362;50.208;9.182;2024-01-11T10:47:54;101243.16;;;7.34;42.14
12594;BME280;6362;50.208;9.182;2024-01-11T10:50:23;101245.06;;;7.41;43.27
12594;BME280;6362;50.208;9.182;2024-01-11T10:56:05;101248.81;;;6.89;44.98
12594;BME280;6362;50.208;9.182;2024-01-11T10:58:35;101260.69;;;6.54;45.48
12594;BME280;6362;50.208;9.182;2024-01-11T11:01:03;101256.13;;;6.45;46.66
12594;BME280;6362;50.208;9.182;2024-01-11T11:03:30;101254.72;;;6.85;45.54
12594;BME280;6362;50.208;9.182;2024-01-11T11:05:58;101255.13;;;7.30;43.84
12594;BME280;6362;50.208;9.182;2024-01-11T11:08:24;101250.41;;;7.47;42.63
12594;BME280;6362;50.208;9.182;2024-01-11T11:10:57;101246.91;;;7.13;44.22
12594;BME280;6362;50.208;9.182;2024-01-11T11:13:23;101243.97;;;7.66;42.83
12594;BME280;6362;50.208;9.182;2024-01-11T11:15:49;101248.81;;;7.52;43.30
12594;BME280;6362;50.208;9.182;2024-01-11T11:18:15;101245.09;;;8.12;41.10
12594;BME280;6362;50.208;9.182;2024-01-11T11:20:42;101238.19;;;8.49;40.26
12594;BME280;6362;50.208;9.182;2024-01-11T11:23:09;101232.00;;;8.06;40.21
12594;BME280;6362;50.208;9.182;2024-01-11T11:25:40;101232.28;;;8.16;40.17
12594;BME280;6362;50.208;9.182;2024-01-11T11:28:06;101231.28;;;8.49;40.11
12594;BME280;6362;50.208;9.182;2024-01-11T11:30:33;101233.56;;;9.17;39.64
12594;BME280;6362;50.208;9.182;2024-01-11T11:33:11;101233.19;;;9.44;38.35
12594;BME280;6362;50.208;9.182;2024-01-11T11:35:40;101235.19;;;9.60;37.89
12594;BME280;6362;50.208;9.182;2024-01-11T11:38:06;101236.56;;;9.90;37.38
12594;BME280;6362;50.208;9.182;2024-01-11T11:40:38;101228.78;;;10.46;35.88
12594;BME280;6362;50.208;9.182;2024-01-11T11:43:05;101228.72;;;9.87;36.66
12594;BME280;6362;50.208;9.182;2024-01-11T11:45:32;101231.22;;;10.34;36.31
12594;BME280;6362;50.208;9.182;2024-01-11T11:47:58;101218.56;;;10.03;35.95
12594;BME280;6362;50.208;9.182;2024-01-11T11:50:24;101224.25;;;10.99;35.22
12594;BME280;6362;50.208;9.182;2024-01-11T11:52:56;101219.78;;;11.73;33.26
12594;BME280;6362;50.208;9.182;2024-01-11T11:55:23;101216.66;;;12.20;32.89
12594;BME280;6362;50.208;9.182;2024-01-11T11:57:52;101213.66;;;11.68;32.95
12594;BME280;6362;50.208;9.182;2024-01-11T12:00:21;101214.66;;;11.82;32.80
12594;BME280;6362;50.208;9.182;2024-01-11T12:02:49;101211.56;;;11.31;33.43
12594;BME280;6362;50.208;9.182;2024-01-11T12:05:17;101192.13;;;11.93;32.75
12594;BME280;6362;50.208;9.182;2024-01-11T12:07:44;101189.84;;;12.40;32.60
12594;BME280;6362;50.208;9.182;2024-01-11T12:10:10;101193.25;;;12.30;31.86
12594;BME280;6362;50.208;9.182;2024-01-11T12:12:36;101180.22;;;12.30;32.27
12594;BME280;6362;50.208;9.182;2024-01-11T12:15:04;101173.25;;;12.31;32.28
12594;BME280;6362;50.208;9.182;2024-01-11T12:17:29;101171.16;;;11.79;32.35
12594;BME280;6362;50.208;9.182;2024-01-11T12:19:55;101183.88;;;12.75;31.63
12594;BME280;6362;50.208;9.182;2024-01-11T12:22:20;101176.84;;;12.54;31.74
12594;BME280;6362;50.208;9.182;2024-01-11T12:24:46;101180.50;;;13.08;30.97
12594;BME280;6362;50.208;9.182;2024-01-11T12:27:12;101184.06;;;13.29;30.42
12594;BME280;6362;50.208;9.182;2024-01-11T12:29:39;101179.75;;;13.55;30.17
12594;BME280;6362;50.208;9.182;2024-01-11T12:32:05;101170.03;;;12.98;30.08
12594;BME280;6362;50.208;9.182;2024-01-11T12:34:31;101181.47;;;13.41;30.10
12594;BME280;6362;50.208;9.182;2024-01-11T12:36:58;101176.25;;;13.39;29.99
12594;BME280;6362;50.208;9.182;2024-01-11T12:39:26;101169.28;;;13.67;30.25
12594;BME280;6362;50.208;9.182;2024-01-11T12:41:54;101160.53;;;13.26;30.25
12594;BME280;6362;50.208;9.182;2024-01-11T12:44:19;101163.09;;;13.06;30.72
12594;BME280;6362;50.208;9.182;2024-01-11T12:46:47;101166.66;;;13.54;30.05
12594;BME280;6362;50.208;9.182;2024-01-11T12:49:13;101166.63;;;14.01;29.16
12594;BME280;6362;50.208;9.182;2024-01-11T12:51:39;101165.69;;;14.25;29.19